createdAt,value
2022-07-31T00:00:00.277Z,94.82
2022-07-31T00:01:00.276Z,95.02
2022-07-31T00:02:00.265Z,95.02
2022-07-31T00:03:00.317Z,95.07
2022-07-31T00:04:00.247Z,94.76
2022-07-31T00:05:00.237Z,95.27
2022-07-31T00:06:00.247Z,95.53
2022-07-31T00:07:00.526Z,95.17
2022-07-31T00:08:00.751Z,94.76
2022-07-31T00:09:00.213Z,95.57
2022-07-31T00:10:00.223Z,94.76
2022-07-31T00:11:00.195Z,95.02
2022-07-31T00:12:00.189Z,95.02
2022-07-31T00:13:00.212Z,95.43
2022-07-31T00:14:00.171Z,95.57
2022-07-31T00:15:00.170Z,95.63
2022-07-31T00:16:01.157Z,94.82
2022-07-31T00:17:00.513Z,95.32
2022-07-31T00:18:00.141Z,95.53
2022-07-31T00:19:00.137Z,95.12
2022-07-31T00:20:00.175Z,95.22
2022-07-31T00:21:00.117Z,95.12
2022-07-31T00:22:00.118Z,95.12
2022-07-31T00:23:00.098Z,95.22
2022-07-31T00:24:00.093Z,94.92
2022-07-31T00:25:00.092Z,94.57
2022-07-31T00:26:00.081Z,94.62
2022-07-31T00:27:00.306Z,94.82
2022-07-31T00:28:00.062Z,94.82
2022-07-31T00:29:00.074Z,94.87
2022-07-31T00:30:00.072Z,94.57
2022-07-31T00:31:00.067Z,93.91
2022-07-31T00:33:00.490Z,93.51
2022-07-31T00:34:00.483Z,93.71
2022-07-31T00:35:00.481Z,93.71
2022-07-31T00:36:00.470Z,93.91
2022-07-31T00:37:01.003Z,93.60
2022-07-31T00:38:24.891Z,93.81
2022-07-31T00:39:03.540Z,93.51
2022-07-31T00:40:01.540Z,93.24
2022-07-31T00:41:01.536Z,93.00
2022-07-31T00:42:01.515Z,93.30
2022-07-31T00:43:01.499Z,93.00
2022-07-31T00:44:01.492Z,93.30
2022-07-31T00:45:01.486Z,92.90
2022-07-31T00:46:01.481Z,93.20
2022-07-31T00:47:01.800Z,93.60
2022-07-31T00:48:01.462Z,94.01
2022-07-31T00:49:01.478Z,94.72
2022-07-31T00:50:01.461Z,94.72
2022-07-31T00:51:02.359Z,94.62
2022-07-31T00:52:01.435Z,94.62
2022-07-31T00:53:01.423Z,94.51
2022-07-31T00:54:01.600Z,94.87
2022-07-31T00:55:01.421Z,94.87
2022-07-31T00:56:01.399Z,94.82
2022-07-31T00:57:01.708Z,94.98
2022-07-31T00:58:01.418Z,94.82
2022-07-31T00:59:01.378Z,94.82
2022-07-31T01:00:01.375Z,94.72
2022-07-31T01:01:01.415Z,94.82
2022-07-31T01:02:01.359Z,94.42
2022-07-31T01:03:01.341Z,94.42
2022-07-31T01:04:01.337Z,94.72
2022-07-31T01:05:01.332Z,94.72
2022-07-31T01:06:01.326Z,94.21
2022-07-31T01:07:01.771Z,94.72
2022-07-31T01:08:01.305Z,94.62
2022-07-31T01:09:01.305Z,94.82
2022-07-31T01:10:01.299Z,94.72
2022-07-31T01:11:01.292Z,94.82
2022-07-31T01:12:01.292Z,94.42
2022-07-31T01:13:01.280Z,94.51
2022-07-31T01:14:01.273Z,95.17
2022-07-31T01:15:02.950Z,95.07
2022-07-31T01:16:01.251Z,95.43
2022-07-31T01:17:01.797Z,95.02
2022-07-31T01:18:01.233Z,95.22
2022-07-31T01:19:01.220Z,95.12
2022-07-31T01:20:01.215Z,95.12
2022-07-31T01:21:01.210Z,94.92
2022-07-31T01:22:03.938Z,94.62
2022-07-31T01:23:01.197Z,94.62
2022-07-31T01:24:01.182Z,94.82
2022-07-31T01:25:01.173Z,94.72
2022-07-31T01:26:01.171Z,94.92
2022-07-31T01:27:01.536Z,93.87
2022-07-31T01:28:01.158Z,93.76
2022-07-31T01:29:01.154Z,93.96
2022-07-31T01:30:01.136Z,93.87
2022-07-31T01:31:24.230Z,93.76
2022-07-31T01:32:03.123Z,93.87
2022-07-31T01:33:01.112Z,93.81
2022-07-31T01:34:01.111Z,93.81
2022-07-31T01:35:01.102Z,93.20
2022-07-31T01:36:01.122Z,91.94
2022-07-31T01:37:01.600Z,91.94
2022-07-31T01:38:01.079Z,93.51
2022-07-31T01:39:01.070Z,93.16
2022-07-31T01:40:01.073Z,93.71
2022-07-31T01:41:01.053Z,93.56
2022-07-31T01:42:01.467Z,93.36
2022-07-31T01:43:01.052Z,93.56
2022-07-31T01:44:01.032Z,93.05
2022-07-31T01:45:01.028Z,93.05
2022-07-31T01:46:01.017Z,91.85
2022-07-31T01:47:01.464Z,91.85
2022-07-31T01:48:00.994Z,91.74
2022-07-31T01:49:01.000Z,91.44
2022-07-31T01:50:00.999Z,91.34
2022-07-31T01:51:00.973Z,91.54
2022-07-31T01:52:04.370Z,91.54
2022-07-31T01:53:01.008Z,91.44
2022-07-31T01:54:00.962Z,91.44
2022-07-31T01:55:00.939Z,92.35
2022-07-31T01:56:03.601Z,91.90
2022-07-31T01:57:00.940Z,91.70
2022-07-31T01:58:00.911Z,91.90
2022-07-31T01:59:01.909Z,92.25
2022-07-31T02:00:00.907Z,92.45
2022-07-31T02:01:00.950Z,92.10
2022-07-31T02:02:01.354Z,92.05
2022-07-31T02:03:07.697Z,91.90
2022-07-31T02:04:01.867Z,92.61
2022-07-31T02:05:00.854Z,93.01
2022-07-31T02:06:00.841Z,92.55
2022-07-31T02:07:00.840Z,92.85
2022-07-31T02:08:00.837Z,92.76
2022-07-31T02:09:00.823Z,93.05
2022-07-31T02:10:00.815Z,93.16
2022-07-31T02:11:00.804Z,93.05
2022-07-31T02:12:00.797Z,93.36
2022-07-31T02:13:00.803Z,93.16
2022-07-31T02:14:00.782Z,92.96
2022-07-31T02:15:00.789Z,93.05
2022-07-31T02:16:00.762Z,93.20
2022-07-31T02:17:00.761Z,93.26
2022-07-31T02:18:00.759Z,93.26
2022-07-31T02:19:01.144Z,92.85
2022-07-31T02:20:00.867Z,92.96
2022-07-31T02:21:00.731Z,92.76
2022-07-31T02:22:00.946Z,92.61
2022-07-31T02:23:00.711Z,92.76
2022-07-31T02:24:00.707Z,92.96
2022-07-31T02:25:00.694Z,93.05
2022-07-31T02:26:00.681Z,93.05
2022-07-31T02:27:00.677Z,92.96
2022-07-31T02:28:00.667Z,93.36
2022-07-31T02:29:00.668Z,93.20
2022-07-31T02:30:00.651Z,93.56
2022-07-31T02:31:00.645Z,93.81
2022-07-31T02:32:11.618Z,93.91
2022-07-31T02:33:01.623Z,93.87
2022-07-31T02:34:00.615Z,93.76
2022-07-31T02:35:00.603Z,94.07
2022-07-31T02:36:00.600Z,94.11
2022-07-31T02:37:00.603Z,93.87
2022-07-31T02:38:00.590Z,93.76
2022-07-31T02:39:00.572Z,93.96
2022-07-31T02:40:00.565Z,93.76
2022-07-31T02:41:00.560Z,94.27
2022-07-31T02:42:00.705Z,93.87
2022-07-31T02:43:00.545Z,93.66
2022-07-31T02:44:00.535Z,93.05
2022-07-31T02:45:00.541Z,93.26
2022-07-31T02:46:00.548Z,93.05
2022-07-31T02:47:00.516Z,92.96
2022-07-31T02:48:00.499Z,92.96
2022-07-31T02:49:00.544Z,92.76
2022-07-31T02:50:00.486Z,92.65
2022-07-31T02:51:00.492Z,92.81
2022-07-31T02:52:00.571Z,92.85
2022-07-31T02:53:00.459Z,92.45
2022-07-31T02:54:00.456Z,92.65
2022-07-31T02:55:00.447Z,92.96
2022-07-31T02:56:00.443Z,92.45
2022-07-31T02:57:00.438Z,93.05
2022-07-31T02:58:00.420Z,92.76
2022-07-31T02:59:00.426Z,93.05
2022-07-31T03:00:00.413Z,93.36
2022-07-31T03:01:00.516Z,92.76
2022-07-31T03:02:00.638Z,92.76
2022-07-31T03:03:00.395Z,93.05
2022-07-31T03:04:00.380Z,93.26
2022-07-31T03:05:00.371Z,93.60
2022-07-31T03:06:00.370Z,93.87
2022-07-31T03:07:00.371Z,93.87
2022-07-31T03:08:00.343Z,93.87
2022-07-31T03:09:00.352Z,93.46
2022-07-31T03:10:00.331Z,93.46
2022-07-31T03:11:00.321Z,93.36
2022-07-31T03:12:05.028Z,93.16
2022-07-31T03:13:00.305Z,93.71
2022-07-31T03:14:00.311Z,93.91
2022-07-31T03:15:00.290Z,94.01
2022-07-31T03:16:00.282Z,93.51
2022-07-31T03:17:00.272Z,94.62
2022-07-31T03:18:00.263Z,94.72
2022-07-31T03:19:00.270Z,94.21
2022-07-31T03:20:00.244Z,94.31
2022-07-31T03:21:00.238Z,94.51
2022-07-31T03:22:00.680Z,94.86
2022-07-31T03:23:00.220Z,94.51
2022-07-31T03:24:00.230Z,94.92
2022-07-31T03:25:00.208Z,94.72
2022-07-31T03:26:00.196Z,95.02
2022-07-31T03:27:00.189Z,94.82
2022-07-31T03:28:00.188Z,93.91
2022-07-31T03:29:00.186Z,93.81
2022-07-31T03:30:00.190Z,94.31
2022-07-31T03:31:00.173Z,94.51
2022-07-31T03:32:00.545Z,94.01
2022-07-31T03:33:00.148Z,94.01
2022-07-31T03:34:00.150Z,94.11
2022-07-31T03:35:01.134Z,94.11
2022-07-31T03:36:00.123Z,94.01
2022-07-31T03:37:00.119Z,94.01
2022-07-31T03:38:00.109Z,94.01
2022-07-31T03:39:00.102Z,94.01
2022-07-31T03:40:00.124Z,93.60
2022-07-31T03:41:00.108Z,93.91
2022-07-31T03:42:00.250Z,94.11
2022-07-31T03:43:00.076Z,93.81
2022-07-31T03:44:00.072Z,93.40
2022-07-31T03:45:00.067Z,93.30
2022-07-31T03:46:00.040Z,93.30
2022-07-31T03:47:00.032Z,93.36
2022-07-31T03:48:00.029Z,92.76
2022-07-31T03:49:01.056Z,92.76
2022-07-31T03:50:00.011Z,92.19
2022-07-31T03:51:00.018Z,92.09
2022-07-31T03:52:00.162Z,92.29
2022-07-31T03:52:59.987Z,92.09
2022-07-31T03:53:59.976Z,92.19
2022-07-31T03:54:59.970Z,92.29
2022-07-31T03:55:59.967Z,92.60
2022-07-31T03:56:59.957Z,92.60
2022-07-31T03:57:59.947Z,92.49
2022-07-31T03:58:59.934Z,92.40
2022-07-31T04:00:00.017Z,92.19
2022-07-31T04:00:59.946Z,91.64
2022-07-31T04:01:59.908Z,91.94
2022-07-31T04:02:59.903Z,91.94
2022-07-31T04:03:59.896Z,91.74
2022-07-31T04:04:59.958Z,91.85
2022-07-31T04:05:59.896Z,93.16
2022-07-31T04:06:59.882Z,93.16
2022-07-31T04:07:59.880Z,92.76
2022-07-31T04:08:59.857Z,92.65
2022-07-31T04:09:59.857Z,92.45
2022-07-31T04:10:59.850Z,93.00
2022-07-31T04:11:59.836Z,93.30
2022-07-31T04:12:59.835Z,93.91
2022-07-31T04:13:59.821Z,93.81
2022-07-31T04:14:59.832Z,93.91
2022-07-31T04:15:59.821Z,93.55
2022-07-31T04:16:59.796Z,94.46
2022-07-31T04:17:59.800Z,94.66
2022-07-31T04:18:59.909Z,94.72
2022-07-31T04:19:59.768Z,94.56
2022-07-31T04:20:59.771Z,94.56
2022-07-31T04:21:59.755Z,94.26
2022-07-31T04:22:59.745Z,93.85
2022-07-31T04:23:59.743Z,94.11
2022-07-31T04:24:59.730Z,93.95
2022-07-31T04:26:00.484Z,93.55
2022-07-31T04:26:59.713Z,93.95
2022-07-31T04:28:00.513Z,93.75
2022-07-31T04:28:59.700Z,93.40
2022-07-31T04:29:59.701Z,93.65
2022-07-31T04:30:59.698Z,93.35
2022-07-31T04:31:59.679Z,93.65
2022-07-31T04:32:59.679Z,93.35
2022-07-31T04:33:59.661Z,93.30
2022-07-31T04:34:59.655Z,93.44
2022-07-31T04:35:59.701Z,93.55
2022-07-31T04:36:59.638Z,93.65
2022-07-31T04:37:59.628Z,93.35
2022-07-31T04:38:59.620Z,92.90
2022-07-31T04:39:59.617Z,93.10
2022-07-31T04:40:59.611Z,93.30
2022-07-31T04:42:00.911Z,93.10
2022-07-31T04:42:59.587Z,92.90
2022-07-31T04:43:59.597Z,93.20
2022-07-31T04:44:59.577Z,92.90
2022-07-31T04:45:59.605Z,93.00
2022-07-31T04:46:59.580Z,92.60
2022-07-31T04:47:59.555Z,92.80
2022-07-31T04:48:59.626Z,92.55
2022-07-31T04:49:59.553Z,93.12
2022-07-31T04:50:59.528Z,91.76
2022-07-31T04:51:59.529Z,91.66
2022-07-31T04:52:59.513Z,90.70
2022-07-31T04:53:59.511Z,89.39
2022-07-31T04:54:59.494Z,89.50
2022-07-31T04:55:59.488Z,88.68
2022-07-31T04:56:59.478Z,88.79
2022-07-31T04:57:59.475Z,88.54
2022-07-31T04:58:59.467Z,88.65
2022-07-31T05:00:01.372Z,87.94
2022-07-31T05:00:59.444Z,86.99
2022-07-31T05:01:59.521Z,86.44
2022-07-31T05:02:59.438Z,85.60
2022-07-31T05:03:59.425Z,84.59
2022-07-31T05:04:59.415Z,84.35
2022-07-31T05:05:59.401Z,83.17
2022-07-31T05:06:59.402Z,82.02
2022-07-31T05:07:59.396Z,81.01
2022-07-31T05:08:59.379Z,80.33
2022-07-31T05:09:59.362Z,79.39
2022-07-31T05:11:00.371Z,77.25
2022-07-31T05:11:59.362Z,76.87
2022-07-31T05:12:59.356Z,74.73
2022-07-31T05:13:59.348Z,74.70
2022-07-31T05:14:59.338Z,73.56
2022-07-31T05:15:59.326Z,72.99
2022-07-31T05:16:59.314Z,71.56
2022-07-31T05:17:59.317Z,70.56
2022-07-31T05:18:59.307Z,70.46
2022-07-31T05:19:59.304Z,70.23
2022-07-31T05:20:59.304Z,69.69
2022-07-31T05:22:03.934Z,69.69
2022-07-31T05:23:00.265Z,69.20
2022-07-31T05:23:59.263Z,69.02
2022-07-31T05:24:59.259Z,69.20
2022-07-31T05:25:59.245Z,69.56
2022-07-31T05:26:59.244Z,68.13
2022-07-31T05:27:59.274Z,67.70
2022-07-31T05:28:59.228Z,65.64
2022-07-31T05:29:59.218Z,65.61
2022-07-31T05:30:59.216Z,63.92
2022-07-31T05:32:10.125Z,64.09
2022-07-31T05:33:00.225Z,64.22
2022-07-31T05:33:59.201Z,64.54
2022-07-31T05:34:59.173Z,65.74
2022-07-31T05:35:59.187Z,64.91
2022-07-31T05:36:59.166Z,64.51
2022-07-31T05:37:59.160Z,64.01
2022-07-31T05:38:59.144Z,64.72
2022-07-31T05:39:59.959Z,64.75
2022-07-31T05:40:59.132Z,64.45
2022-07-31T05:41:59.119Z,65.24
2022-07-31T05:42:59.118Z,64.72
2022-07-31T05:43:59.098Z,63.95
2022-07-31T05:44:59.111Z,62.73
2022-07-31T05:45:59.094Z,61.48
2022-07-31T05:47:43.827Z,60.98
2022-07-31T05:48:43.822Z,62.21
2022-07-31T05:49:43.815Z,62.04
2022-07-31T05:50:43.804Z,62.30
2022-07-31T05:51:43.807Z,61.25
2022-07-31T05:52:44.887Z,60.03
2022-07-31T05:53:45.783Z,60.46
2022-07-31T05:54:45.867Z,60.56
2022-07-31T05:55:44.864Z,60.56
2022-07-31T05:56:44.868Z,60.03
2022-07-31T05:57:44.842Z,59.93
2022-07-31T05:58:48.307Z,58.81
2022-07-31T05:59:44.827Z,58.72
2022-07-31T06:00:44.848Z,58.29
2022-07-31T06:01:44.879Z,58.26
2022-07-31T06:02:44.799Z,57.76
2022-07-31T06:03:51.623Z,57.57
2022-07-31T06:04:45.783Z,57.44
2022-07-31T06:05:44.778Z,56.87
2022-07-31T06:06:44.773Z,57.76
2022-07-31T06:07:51.257Z,58.06
2022-07-31T06:08:45.762Z,58.09
2022-07-31T06:09:44.746Z,57.99
2022-07-31T06:10:44.753Z,57.79
2022-07-31T06:11:44.732Z,58.51
2022-07-31T06:12:44.725Z,60.02
2022-07-31T06:13:44.718Z,61.44
2022-07-31T06:14:44.701Z,62.07
2022-07-31T06:15:49.216Z,62.04
2022-07-31T06:16:44.686Z,62.16
2022-07-31T06:17:45.068Z,62.96
2022-07-31T06:18:44.667Z,63.36
2022-07-31T06:19:44.664Z,63.39
2022-07-31T06:20:44.658Z,63.39
2022-07-31T06:21:44.646Z,63.36
2022-07-31T06:22:44.638Z,63.49
2022-07-31T06:23:44.662Z,63.16
2022-07-31T06:24:44.627Z,63.16
2022-07-31T06:25:44.610Z,63.29
2022-07-31T06:26:44.601Z,64.01
2022-07-31T06:27:45.002Z,64.54
2022-07-31T06:28:48.599Z,64.15
2022-07-31T06:29:44.586Z,66.37
2022-07-31T06:30:44.569Z,65.80
2022-07-31T06:31:44.579Z,65.91
2022-07-31T06:32:44.553Z,66.80
2022-07-31T06:33:48.103Z,66.24
2022-07-31T06:34:44.538Z,66.24
2022-07-31T06:35:44.531Z,67.23
2022-07-31T06:36:44.520Z,67.53
2022-07-31T06:37:44.519Z,67.63
2022-07-31T06:38:44.530Z,68.46
2022-07-31T06:39:56.065Z,68.33
2022-07-31T06:40:45.483Z,67.63
2022-07-31T06:41:44.476Z,68.53
2022-07-31T06:42:44.467Z,68.23
2022-07-31T06:43:44.466Z,67.60
2022-07-31T06:44:46.422Z,67.83
2022-07-31T06:45:52.004Z,68.13
2022-07-31T06:46:49.042Z,67.73
2022-07-31T06:47:44.441Z,68.03
2022-07-31T06:48:44.424Z,68.43
2022-07-31T06:49:44.447Z,67.73
2022-07-31T06:50:44.516Z,67.96
2022-07-31T06:51:44.399Z,69.36
2022-07-31T06:52:44.391Z,69.93
2022-07-31T06:53:44.388Z,70.12
2022-07-31T06:54:44.372Z,70.23
2022-07-31T06:55:44.808Z,71.39
2022-07-31T06:56:44.404Z,71.86
2022-07-31T06:57:44.346Z,71.79
2022-07-31T06:58:44.366Z,72.19
2022-07-31T06:59:44.333Z,72.19
2022-07-31T07:00:44.337Z,72.19
2022-07-31T07:01:44.399Z,72.89
2022-07-31T07:02:44.308Z,72.69
2022-07-31T07:03:44.307Z,72.69
2022-07-31T07:05:05.401Z,72.79
2022-07-31T07:05:45.591Z,72.45
2022-07-31T07:06:45.277Z,71.76
2022-07-31T07:07:44.273Z,71.92
2022-07-31T07:08:44.269Z,71.12
2022-07-31T07:09:44.254Z,72.06
2022-07-31T07:10:44.246Z,71.42
2022-07-31T07:11:44.244Z,71.33
2022-07-31T07:12:44.232Z,71.22
2022-07-31T07:13:45.900Z,70.92
2022-07-31T07:14:44.218Z,71.12
2022-07-31T07:15:44.211Z,70.92
2022-07-31T07:16:44.196Z,71.03
2022-07-31T07:17:44.188Z,70.89
2022-07-31T07:18:44.187Z,70.56
2022-07-31T07:19:44.175Z,69.76
2022-07-31T07:20:44.173Z,69.82
2022-07-31T07:21:44.163Z,70.16
2022-07-31T07:22:44.149Z,70.16
2022-07-31T07:23:44.141Z,69.53
2022-07-31T07:24:44.138Z,69.32
2022-07-31T07:25:44.141Z,67.70
2022-07-31T07:26:44.122Z,68.37
2022-07-31T07:27:44.112Z,66.87
2022-07-31T07:28:44.106Z,66.41
2022-07-31T07:29:44.095Z,65.81
2022-07-31T07:30:44.091Z,64.55
2022-07-31T07:31:44.084Z,63.63
2022-07-31T07:32:44.070Z,61.98
2022-07-31T07:33:44.061Z,61.55
2022-07-31T07:34:44.071Z,60.93
2022-07-31T07:35:44.049Z,59.80
2022-07-31T07:36:44.040Z,59.51
2022-07-31T07:37:44.036Z,59.70
2022-07-31T07:38:44.022Z,58.88
2022-07-31T07:39:44.019Z,59.08
2022-07-31T07:40:44.007Z,58.95
2022-07-31T07:41:44.004Z,58.06
2022-07-31T07:42:43.992Z,58.43
2022-07-31T07:43:44.024Z,58.01
2022-07-31T07:44:43.976Z,57.71
2022-07-31T07:45:43.966Z,56.89
2022-07-31T07:46:43.966Z,57.54
2022-07-31T07:48:02.808Z,58.69
2022-07-31T07:48:44.967Z,59.61
2022-07-31T07:49:43.941Z,59.58
2022-07-31T07:50:43.932Z,58.78
2022-07-31T07:51:58.851Z,58.88
2022-07-31T07:52:44.904Z,58.95
2022-07-31T07:53:44.906Z,58.13
2022-07-31T07:54:43.898Z,57.44
2022-07-31T07:55:43.898Z,56.92
2022-07-31T07:56:43.921Z,57.21
2022-07-31T07:57:43.871Z,56.62
2022-07-31T07:58:43.862Z,58.03
2022-07-31T07:59:43.858Z,58.06
2022-07-31T08:00:43.913Z,57.97
2022-07-31T08:01:43.848Z,58.23
2022-07-31T08:02:43.838Z,57.21
2022-07-31T08:03:48.786Z,57.02
2022-07-31T08:04:47.620Z,57.18
2022-07-31T08:05:44.822Z,56.46
2022-07-31T08:06:43.801Z,56.30
2022-07-31T08:07:43.791Z,56.20
2022-07-31T08:08:43.791Z,57.39
2022-07-31T08:09:44.745Z,56.79
2022-07-31T08:10:44.767Z,56.89
2022-07-31T08:11:43.757Z,56.99
2022-07-31T08:12:43.753Z,57.58
2022-07-31T08:13:49.268Z,57.71
2022-07-31T08:14:45.732Z,56.85
2022-07-31T08:15:43.723Z,56.65
2022-07-31T08:16:43.721Z,56.65
2022-07-31T08:17:43.712Z,57.57
2022-07-31T08:18:43.702Z,57.44
2022-07-31T08:19:46.167Z,56.85
2022-07-31T08:20:44.685Z,56.65
2022-07-31T08:21:43.677Z,56.65
2022-07-31T08:22:43.674Z,56.25
2022-07-31T08:23:43.669Z,55.96
2022-07-31T08:24:43.656Z,56.85
2022-07-31T08:25:43.644Z,56.45
2022-07-31T08:26:43.637Z,56.95
2022-07-31T08:27:43.635Z,57.14
2022-07-31T08:28:50.832Z,56.72
2022-07-31T08:29:44.619Z,56.10
2022-07-31T08:30:43.615Z,56.10
2022-07-31T08:31:49.315Z,56.07
2022-07-31T08:32:44.583Z,56.37
2022-07-31T08:33:43.583Z,56.07
2022-07-31T08:34:43.574Z,56.07
2022-07-31T08:35:44.829Z,56.07
2022-07-31T08:36:45.258Z,55.15
2022-07-31T08:37:50.826Z,54.63
2022-07-31T08:38:44.541Z,55.26
2022-07-31T08:39:43.535Z,54.73
2022-07-31T08:40:43.796Z,54.34
2022-07-31T08:41:43.523Z,53.94
2022-07-31T08:42:43.520Z,53.64
2022-07-31T08:43:59.896Z,52.63
2022-07-31T08:44:45.335Z,52.01
2022-07-31T08:45:43.491Z,50.83
2022-07-31T08:46:43.483Z,50.73
2022-07-31T08:47:43.486Z,50.83
2022-07-31T08:48:43.488Z,51.52
2022-07-31T08:49:43.457Z,50.61
2022-07-31T08:50:43.451Z,50.71
2022-07-31T08:51:51.449Z,50.49
2022-07-31T08:52:44.437Z,50.29
2022-07-31T08:53:43.429Z,49.40
2022-07-31T08:54:43.420Z,49.82
2022-07-31T08:55:56.795Z,49.03
2022-07-31T08:56:44.404Z,49.43
2022-07-31T08:57:43.386Z,50.54
2022-07-31T08:58:44.384Z,51.35
2022-07-31T08:59:43.378Z,51.05
2022-07-31T09:00:43.427Z,51.47
2022-07-31T09:01:43.465Z,50.78
2022-07-31T09:02:43.346Z,50.26
2022-07-31T09:03:44.351Z,50.85
2022-07-31T09:04:43.843Z,50.76
2022-07-31T09:05:43.340Z,50.34
2022-07-31T09:06:43.348Z,49.55
2022-07-31T09:07:43.335Z,49.52
2022-07-31T09:08:43.315Z,49.52
2022-07-31T09:09:52.155Z,49.94
2022-07-31T09:10:49.663Z,49.87
2022-07-31T09:11:46.270Z,49.96
2022-07-31T09:12:43.277Z,49.67
2022-07-31T09:13:43.272Z,49.37
2022-07-31T09:14:44.261Z,49.25
2022-07-31T09:15:43.265Z,48.27
2022-07-31T09:16:43.246Z,48.07
2022-07-31T09:17:53.816Z,48.36
2022-07-31T09:18:44.227Z,48.86
2022-07-31T09:19:52.865Z,48.16
2022-07-31T09:20:44.220Z,48.58
2022-07-31T09:21:43.206Z,49.18
2022-07-31T09:22:43.200Z,49.18
2022-07-31T09:23:43.189Z,48.78
2022-07-31T09:24:43.184Z,48.98
2022-07-31T09:25:43.199Z,48.66
2022-07-31T09:26:43.169Z,48.36
2022-07-31T09:27:43.167Z,48.66
2022-07-31T09:28:43.155Z,48.86
2022-07-31T09:29:43.780Z,48.28
2022-07-31T09:30:55.616Z,47.97
2022-07-31T09:31:44.126Z,47.67
2022-07-31T09:32:43.124Z,48.07
2022-07-31T09:33:45.811Z,47.94
2022-07-31T09:34:44.101Z,48.14
2022-07-31T09:35:43.094Z,48.16
2022-07-31T09:36:43.098Z,48.28
2022-07-31T09:37:43.081Z,49.35
2022-07-31T09:38:43.072Z,49.27
2022-07-31T09:39:52.125Z,49.25
2022-07-31T09:40:55.497Z,48.27
2022-07-31T09:42:01.141Z,48.36
2022-07-31T09:42:45.795Z,49.08
2022-07-31T09:43:51.673Z,48.78
2022-07-31T09:44:44.027Z,49.25
2022-07-31T09:45:48.481Z,48.16
2022-07-31T09:46:44.016Z,49.45
2022-07-31T09:47:43.002Z,49.35
2022-07-31T09:48:44.133Z,48.56
2022-07-31T09:49:42.988Z,48.16
2022-07-31T09:50:42.977Z,48.46
2022-07-31T09:51:42.989Z,48.46
2022-07-31T09:52:42.954Z,49.48
2022-07-31T09:53:43.975Z,48.86
2022-07-31T09:54:42.935Z,48.78
2022-07-31T09:55:42.982Z,49.18
2022-07-31T09:56:42.938Z,49.87
2022-07-31T09:57:42.924Z,49.30
2022-07-31T09:58:43.928Z,49.37
2022-07-31T09:59:42.905Z,48.58
2022-07-31T10:00:43.002Z,48.58
2022-07-31T10:01:42.889Z,47.87
2022-07-31T10:02:42.896Z,47.67
2022-07-31T10:03:42.877Z,47.85
2022-07-31T10:04:43.376Z,47.72
2022-07-31T10:05:42.863Z,47.43
2022-07-31T10:06:42.850Z,46.52
2022-07-31T10:07:42.837Z,46.30
2022-07-31T10:08:42.833Z,45.41
2022-07-31T10:09:42.870Z,45.29
2022-07-31T10:10:42.824Z,45.59
2022-07-31T10:11:42.809Z,44.72
2022-07-31T10:12:42.813Z,44.94
2022-07-31T10:13:42.792Z,45.12
2022-07-31T10:14:42.784Z,44.80
2022-07-31T10:15:42.798Z,44.60
2022-07-31T10:16:42.771Z,44.68
2022-07-31T10:17:42.763Z,43.79
2022-07-31T10:18:44.620Z,43.68
2022-07-31T10:19:43.746Z,43.48
2022-07-31T10:20:42.749Z,43.68
2022-07-31T10:21:42.729Z,43.48
2022-07-31T10:22:42.753Z,44.19
2022-07-31T10:23:42.718Z,43.60
2022-07-31T10:24:42.708Z,43.52
2022-07-31T10:25:42.705Z,44.31
2022-07-31T10:27:00.179Z,44.40
2022-07-31T10:27:44.725Z,44.80
2022-07-31T10:28:42.685Z,45.00
2022-07-31T10:29:42.665Z,45.02
2022-07-31T10:30:42.656Z,44.90
2022-07-31T10:31:42.660Z,44.92
2022-07-31T10:32:42.737Z,45.41
2022-07-31T10:33:44.428Z,45.21
2022-07-31T10:34:43.636Z,44.82
2022-07-31T10:35:42.619Z,43.82
2022-07-31T10:36:42.639Z,43.52
2022-07-31T10:37:42.609Z,43.52
2022-07-31T10:38:42.596Z,44.62
2022-07-31T10:39:42.595Z,43.76
2022-07-31T10:40:43.040Z,44.65
2022-07-31T10:41:42.587Z,45.46
2022-07-31T10:42:42.596Z,44.96
2022-07-31T10:43:42.558Z,45.16
2022-07-31T10:44:42.547Z,44.96
2022-07-31T10:45:42.557Z,44.87
2022-07-31T10:46:42.534Z,44.96
2022-07-31T10:47:48.912Z,44.65
2022-07-31T10:48:43.517Z,43.76
2022-07-31T10:49:42.561Z,43.74
2022-07-31T10:50:42.507Z,42.83
2022-07-31T10:51:42.504Z,41.73
2022-07-31T10:52:42.510Z,42.12
2022-07-31T10:53:51.640Z,42.22
2022-07-31T10:54:43.461Z,41.04
2022-07-31T10:55:43.475Z,40.72
2022-07-31T10:56:42.465Z,39.44
2022-07-31T10:57:55.319Z,40.82
2022-07-31T10:58:43.450Z,39.34
2022-07-31T10:59:44.783Z,40.45
2022-07-31T11:00:43.445Z,40.74
2022-07-31T11:01:42.434Z,41.33
2022-07-31T11:02:46.324Z,40.92
2022-07-31T11:03:42.418Z,41.22
2022-07-31T11:04:42.398Z,41.53
2022-07-31T11:06:02.163Z,41.63
2022-07-31T11:06:43.426Z,41.75
2022-07-31T11:07:42.383Z,41.20
2022-07-31T11:08:42.386Z,41.69
2022-07-31T11:09:50.698Z,42.38
2022-07-31T11:10:43.370Z,42.97
2022-07-31T11:11:42.357Z,41.86
2022-07-31T11:12:42.349Z,42.16
2022-07-31T11:13:42.340Z,42.68
2022-07-31T11:14:42.327Z,43.34
2022-07-31T11:15:42.320Z,43.05
2022-07-31T11:16:42.309Z,42.24
2022-07-31T11:18:22.600Z,42.14
2022-07-31T11:18:43.297Z,42.02
2022-07-31T11:19:42.288Z,42.52
2022-07-31T11:20:42.277Z,41.14
2022-07-31T11:21:42.283Z,40.47
2022-07-31T11:22:42.268Z,40.66
2022-07-31T11:24:02.236Z,41.96
2022-07-31T11:24:43.266Z,41.57
2022-07-31T11:25:42.246Z,41.77
2022-07-31T11:26:42.372Z,41.89
2022-07-31T11:27:43.225Z,42.40
2022-07-31T11:28:42.221Z,42.40
2022-07-31T11:29:59.964Z,42.00
2022-07-31T11:30:43.201Z,41.81
2022-07-31T11:31:42.198Z,41.91
2022-07-31T11:32:42.183Z,43.38
2022-07-31T11:33:42.777Z,45.95
2022-07-31T11:34:42.836Z,46.15
2022-07-31T11:35:42.157Z,46.34
2022-07-31T11:36:42.854Z,44.67
2022-07-31T11:37:56.362Z,43.19
2022-07-31T11:38:43.134Z,42.60
2022-07-31T11:39:42.143Z,42.38
2022-07-31T11:40:43.117Z,42.77
2022-07-31T11:41:44.064Z,43.96
2022-07-31T11:42:42.103Z,44.33
2022-07-31T11:43:42.099Z,43.62
2022-07-31T11:44:42.092Z,42.93
2022-07-31T11:45:42.078Z,42.04
2022-07-31T11:46:42.071Z,40.74
2022-07-31T11:48:12.642Z,41.24
2022-07-31T11:48:45.589Z,41.63
2022-07-31T11:49:48.426Z,40.62
2022-07-31T11:50:43.074Z,41.63
2022-07-31T11:51:42.037Z,41.33
2022-07-31T11:52:42.025Z,41.11
2022-07-31T11:53:42.022Z,40.64
2022-07-31T11:54:42.019Z,39.74
2022-07-31T11:55:42.005Z,39.84
2022-07-31T11:56:43.843Z,39.94
2022-07-31T11:57:51.523Z,38.95
2022-07-31T11:58:42.972Z,39.05
2022-07-31T11:59:45.536Z,39.15
2022-07-31T12:00:41.962Z,39.15
2022-07-31T12:01:41.950Z,39.15
2022-07-31T12:02:41.986Z,39.15
2022-07-31T12:03:41.941Z,39.23
2022-07-31T12:04:41.932Z,38.93
2022-07-31T12:05:41.921Z,38.64
2022-07-31T12:06:41.917Z,38.05
2022-07-31T12:07:41.904Z,38.05
2022-07-31T12:08:41.904Z,38.42
2022-07-31T12:10:00.247Z,39.50
2022-07-31T12:10:42.886Z,38.31
2022-07-31T12:11:41.872Z,37.92
2022-07-31T12:12:41.866Z,38.29
2022-07-31T12:13:41.866Z,38.21
2022-07-31T12:14:41.856Z,37.80
2022-07-31T12:15:41.844Z,38.90
2022-07-31T12:16:41.839Z,37.63
2022-07-31T12:17:41.819Z,37.82
2022-07-31T12:18:42.818Z,37.52
2022-07-31T12:19:41.855Z,38.21
2022-07-31T12:20:41.807Z,38.19
2022-07-31T12:21:41.839Z,37.80
2022-07-31T12:22:41.793Z,38.70
2022-07-31T12:23:42.126Z,38.92
2022-07-31T12:24:41.770Z,39.23
2022-07-31T12:25:41.764Z,38.56
2022-07-31T12:26:41.758Z,39.17
2022-07-31T12:27:41.749Z,39.76
2022-07-31T12:28:41.746Z,39.26
2022-07-31T12:29:41.785Z,39.25
2022-07-31T12:30:41.726Z,39.23
2022-07-31T12:31:41.727Z,39.32
2022-07-31T12:32:41.712Z,38.54
2022-07-31T12:33:41.702Z,38.62
2022-07-31T12:34:41.696Z,38.03
2022-07-31T12:35:55.994Z,37.85
2022-07-31T12:36:42.685Z,38.32
2022-07-31T12:37:41.673Z,38.23
2022-07-31T12:38:47.690Z,38.24
2022-07-31T12:39:54.479Z,38.44
2022-07-31T12:40:42.655Z,38.46
2022-07-31T12:41:41.643Z,38.46
2022-07-31T12:42:42.220Z,38.38
2022-07-31T12:43:52.056Z,38.97
2022-07-31T12:44:42.622Z,39.26
2022-07-31T12:45:41.609Z,39.87
2022-07-31T12:46:41.626Z,39.87
2022-07-31T12:47:41.598Z,39.68
2022-07-31T12:48:45.968Z,39.87
2022-07-31T12:49:41.713Z,39.86
2022-07-31T12:50:41.588Z,38.58
2022-07-31T12:51:45.545Z,39.37
2022-07-31T12:52:42.555Z,39.37
2022-07-31T12:53:41.546Z,38.58